Time;durP1;ratioP1;P1;durP2;ratioP2;P2;SDS_P1;SDS_P2;PMS_P1;PMS_P2;Temp;Humidity;BMP_temperature;BMP_pressure;BME280_temperature;BME280_humidity;BME280_pressure;Samples;Min_cycle;Max_cycle;Signal;HPM_P1;HPM_P2
2024/03/09 00:00:17;;;;;;;11.57;9.55;;;;;;;5.77;75.15;93619.09;520270;28;1012;-74
2024/03/09 00:00:32;;;;;;;12.30;9.68;;;;;;;5.77;75.13;93624.59;518263;28;893;-74
2024/03/09 00:00:48;;;;;;;11.73;9.20;;;;;;;5.75;75.36;93620.88;519440;28;1612;-73
2024/03/09 00:01:04;;;;;;;10.52;8.68;;;;;;;5.77;75.24;93627.31;519305;28;785;-74
2024/03/09 00:01:19;;;;;;;10.33;8.53;;;;;;;5.77;74.96;93626.56;519269;28;865;-74
2024/03/09 00:01:37;;;;;;;10.13;8.60;;;;;;;5.79;75.08;93624.06;518344;28;762;-74
2024/03/09 00:01:52;;;;;;;11.38;9.18;;;;;;;5.80;75.14;93622.81;518882;28;920;-74
2024/03/09 00:02:08;;;;;;;11.07;9.40;;;;;;;5.81;75.04;93619.56;518581;28;1621;-74
2024/03/09 00:02:24;;;;;;;11.82;9.50;;;;;;;5.82;75.23;93621.06;519358;28;889;-74
2024/03/09 00:02:39;;;;;;;11.83;9.47;;;;;;;5.83;74.86;93619.03;519817;28;834;-74
2024/03/09 00:02:56;;;;;;;10.40;9.30;;;;;;;5.86;74.92;93629.75;519480;28;755;-73
2024/03/09 00:03:12;;;;;;;10.50;9.38;;;;;;;5.80;75.24;93631.78;519626;28;834;-74
2024/03/09 00:03:27;;;;;;;11.50;9.77;;;;;;;5.77;75.38;93623.84;520102;28;1895;-74
2024/03/09 00:03:43;;;;;;;12.25;9.15;;;;;;;5.75;75.20;93618.88;519793;28;1081;-74
2024/03/09 00:04:00;;;;;;;10.73;8.43;;;;;;;5.75;75.22;93624.34;520398;28;853;-74
2024/03/09 00:04:16;;;;;;;9.38;8.23;;;;;;;5.76;75.38;93625.81;519141;28;837;-74
2024/03/09 00:04:32;;;;;;;10.65;9.00;;;;;;;5.78;74.96;93617.13;518316;28;838;-74
2024/03/09 00:04:47;;;;;;;12.33;9.50;;;;;;;5.78;74.84;93630.81;518743;28;1819;-74
2024/03/09 00:05:06;;;;;;;12.32;9.20;;;;;;;5.82;74.88;93626.53;518287;28;761;-74
2024/03/09 00:05:24;;;;;;;11.30;9.23;;;;;;;5.84;74.81;93629.53;518392;28;941;-74
2024/03/09 00:05:39;;;;;;;9.32;8.15;;;;;;;5.86;74.50;93634.50;518630;28;814;-74
2024/03/09 00:05:55;;;;;;;9.13;7.97;;;;;;;5.85;74.36;93620.03;518544;28;754;-74
2024/03/09 00:06:11;;;;;;;9.33;7.83;;;;;;;5.85;74.52;93622.78;518293;28;782;-74
2024/03/09 00:06:26;;;;;;;9.90;7.93;;;;;;;5.86;74.52;93621.53;518369;28;770;-73
2024/03/09 00:06:43;;;;;;;9.85;8.23;;;;;;;5.84;74.46;93626.78;519206;28;1089;-74
2024/03/09 00:06:59;;;;;;;9.65;8.13;;;;;;;5.84;74.69;93623.31;518446;28;904;-74
2024/03/09 00:07:15;;;;;;;10.77;8.73;;;;;;;5.82;74.71;93626.53;516272;28;872;-74
2024/03/09 00:07:30;;;;;;;10.55;9.32;;;;;;;5.84;74.77;93623.31;517470;28;981;-74
2024/03/09 00:07:47;;;;;;;10.38;9.30;;;;;;;5.85;74.85;93625.53;517624;28;767;-74
2024/03/09 00:08:04;;;;;;;10.23;9.07;;;;;;;5.86;74.72;93632.50;516339;28;838;-73
2024/03/09 00:08:21;;;;;;;10.52;8.80;;;;;;;5.86;74.78;93627.00;516697;28;1327;-73
2024/03/09 00:08:38;;;;;;;11.30;9.15;;;;;;;5.81;74.77;93627.78;516712;28;818;-74
2024/03/09 00:08:53;;;;;;;11.85;9.27;;;;;;;5.78;74.75;93623.31;516534;28;869;-73
2024/03/09 00:09:09;;;;;;;11.05;8.60;;;;;;;5.71;74.86;93625.91;517839;28;787;-73
2024/03/09 00:09:24;;;;;;;9.95;8.25;;;;;;;5.67;74.66;93623.44;519053;28;762;-73
2024/03/09 00:09:40;;;;;;;9.30;8.07;;;;;;;5.57;74.72;93630.50;520661;28;850;-73
2024/03/09 00:09:55;;;;;;;9.23;8.07;;;;;;;5.32;74.82;93596.13;520534;28;1164;-73
2024/03/09 00:10:11;;;;;;;8.90;8.00;;;;;;;5.57;74.94;93633.22;520674;28;856;-74
2024/03/09 00:10:28;;;;;;;9.75;8.25;;;;;;;5.56;74.97;93631.75;520578;28;900;-73
2024/03/09 00:10:44;;;;;;;9.65;8.13;;;;;;;5.53;74.96;93627.31;519985;28;1629;-74
2024/03/09 00:11:00;;;;;;;10.10;8.52;;;;;;;5.56;75.01;93636.50;519302;28;877;-73
2024/03/09 00:11:16;;;;;;;11.00;8.98;;;;;;;5.58;74.74;93632.00;520374;28;924;-74
2024/03/09 00:11:31;;;;;;;10.90;8.73;;;;;;;5.59;75.02;93619.78;518763;28;1053;-73
2024/03/09 00:11:47;;;;;;;10.85;8.43;;;;;;;5.60;74.78;93621.28;520357;28;1076;-74
2024/03/09 00:12:04;;;;;;;10.47;8.17;;;;;;;5.59;74.63;93627.25;518669;28;834;-72
2024/03/09 00:12:19;;;;;;;8.90;7.78;;;;;;;5.58;74.61;93628.50;518569;28;936;-73
2024/03/09 00:12:35;;;;;;;8.50;7.63;;;;;;;5.58;74.69;93623.78;518623;28;881;-73
2024/03/09 00:12:51;;;;;;;9.00;8.07;;;;;;;5.39;74.83;93601.78;520519;28;789;-73
2024/03/09 00:13:10;;;;;;;9.48;8.25;;;;;;;5.61;74.53;93630.94;518484;28;1013;-73
2024/03/09 00:13:27;;;;;;;9.93;8.55;;;;;;;5.64;74.86;93624.47;517984;28;1676;-74
2024/03/09 00:13:43;;;;;;;10.00;8.77;;;;;;;5.64;74.73;93618.25;517278;28;878;-74
2024/03/09 00:13:59;;;;;;;10.38;8.68;;;;;;;5.66;74.81;93624.69;516453;28;900;-73
2024/03/09 00:14:14;;;;;;;10.13;8.47;;;;;;;5.64;74.92;93623.72;516366;28;912;-73
2024/03/09 00:14:30;;;;;;;9.65;8.60;;;;;;;5.64;74.91;93620.97;516881;28;977;-74
2024/03/09 00:14:46;;;;;;;9.48;8.45;;;;;;;5.62;74.88;93624.22;518259;28;1914;-74
2024/03/09 00:15:01;;;;;;;9.30;8.23;;;;;;;5.63;75.01;93620.22;518445;28;1054;-74
2024/03/09 00:15:19;;;;;;;9.82;8.55;;;;;;;5.61;74.95;93627.50;519783;28;858;-74
2024/03/09 00:15:34;;;;;;;10.18;8.65;;;;;;;5.59;74.81;93630.00;519951;28;907;-74
2024/03/09 00:15:51;;;;;;;10.60;8.70;;;;;;;5.59;74.87;93625.25;518534;28;847;-74
2024/03/09 00:16:07;;;;;;;10.27;8.45;;;;;;;5.61;75.05;93624.75;518525;28;838;-74
2024/03/09 00:16:23;;;;;;;9.00;8.00;;;;;;;5.61;75.01;93625.47;518786;28;1080;-74
2024/03/09 00:16:38;;;;;;;9.30;8.27;;;;;;;5.58;74.97;93629.25;520205;28;1092;-74
2024/03/09 00:16:54;;;;;;;10.18;8.45;;;;;;;5.57;75.02;93627.75;520637;28;877;-74
2024/03/09 00:17:09;;;;;;;10.47;8.20;;;;;;;5.58;74.97;93629.25;520680;28;842;-74
2024/03/09 00:17:25;;;;;;;10.40;8.13;;;;;;;5.56;74.79;93626.28;519806;28;1739;-74
2024/03/09 00:17:43;;;;;;;10.10;8.32;;;;;;;5.55;74.87;93624.03;519985;28;778;-74
2024/03/09 00:17:58;;;;;;;10.15;8.63;;;;;;;5.52;74.93;93628.56;519048;28;892;-74
2024/03/09 00:18:14;;;;;;;10.63;8.98;;;;;;;5.51;75.06;93627.06;519159;28;1367;-74
2024/03/09 00:18:30;;;;;;;10.63;9.13;;;;;;;5.43;75.20;93620.69;519629;28;806;-74
2024/03/09 00:18:46;;;;;;;11.38;8.77;;;;;;;5.49;75.19;93621.38;519865;28;841;-74
2024/03/09 00:19:03;;;;;;;11.82;8.30;;;;;;;5.46;75.00;93625.13;518646;28;921;-74
2024/03/09 00:19:20;;;;;;;11.30;8.55;;;;;;;5.48;75.16;93628.09;519536;28;933;-74
2024/03/09 00:19:36;;;;;;;10.93;8.68;;;;;;;5.50;75.05;93625.56;518906;28;917;-74
2024/03/09 00:19:51;;;;;;;10.57;8.77;;;;;;;5.51;75.06;93629.81;518711;28;826;-74
2024/03/09 00:20:11;;;;;;;9.50;8.38;;;;;;;5.44;75.28;93621.41;518652;28;1147;-74
2024/03/09 00:20:34;;;;;;;9.77;7.90;;;;;;;5.44;75.96;93624.13;520191;28;853;-75
2024/03/09 00:20:49;;;;;;;11.23;8.93;;;;;;;5.41;76.29;93622.44;520094;28;1636;-74
2024/03/09 00:21:08;;;;;;;11.07;9.10;;;;;;;5.37;76.33;93620.72;519582;28;811;-74
2024/03/09 00:21:24;;;;;;;11.13;9.38;;;;;;;5.40;76.22;93621.69;519343;28;1099;-75
2024/03/09 00:21:39;;;;;;;12.80;9.53;;;;;;;5.41;76.38;93628.66;519251;28;928;-74
2024/03/09 00:21:55;;;;;;;12.65;9.30;;;;;;;5.43;76.14;93622.66;519715;28;1100;-74
2024/03/09 00:22:11;;;;;;;11.43;9.23;;;;;;;5.41;76.23;93616.97;518690;28;873;-74
2024/03/09 00:22:27;;;;;;;10.77;9.00;;;;;;;5.40;76.03;93618.94;518713;28;870;-74
2024/03/09 00:22:43;;;;;;;11.00;9.02;;;;;;;5.35;76.48;93622.47;519774;28;869;-74
2024/03/09 00:22:58;;;;;;;11.17;9.07;;;;;;;5.36;76.14;93632.19;519639;28;1127;-74
2024/03/09 00:23:14;;;;;;;10.93;9.57;;;;;;;5.37;76.65;93625.47;518773;28;868;-74
2024/03/09 00:23:29;;;;;;;10.40;9.27;;;;;;;5.39;76.57;93625.69;518770;28;1613;-74
2024/03/09 00:23:50;;;;;;;10.23;9.13;;;;;;;5.40;76.56;93624.44;519285;28;856;-74
2024/03/09 00:24:06;;;;;;;11.05;9.05;;;;;;;5.45;76.49;93629.13;518516;28;901;-74
2024/03/09 00:24:21;;;;;;;11.03;8.70;;;;;;;5.45;75.99;93626.38;518641;28;829;-74
2024/03/09 00:24:36;;;;;;;9.82;8.65;;;;;;;5.48;76.04;93625.34;519745;28;1063;-74
2024/03/09 00:24:55;;;;;;;9.77;8.60;;;;;;;5.50;75.76;93625.56;520630;28;835;-74
2024/03/09 00:25:11;;;;;;;9.88;8.40;;;;;;;5.53;75.61;93629.28;520566;28;798;-74
2024/03/09 00:25:28;;;;;;;9.90;8.35;;;;;;;5.56;75.41;93626.28;520645;28;798;-74
2024/03/09 00:25:44;;;;;;;9.57;8.23;;;;;;;5.58;75.43;93632.00;520006;28;904;-74
2024/03/09 00:25:59;;;;;;;9.87;8.80;;;;;;;5.59;75.31;93625.25;520625;28;853;-74
2024/03/09 00:26:15;;;;;;;9.57;8.57;;;;;;;5.60;75.33;93626.75;520482;28;981;-74
2024/03/09 00:26:30;;;;;;;9.90;8.70;;;;;;;5.60;74.94;93631.47;520635;28;789;-74
2024/03/09 00:26:46;;;;;;;10.60;9.20;;;;;;;5.61;75.24;93624.75;520582;28;789;-75
2024/03/09 00:27:07;;;;;;;10.13;9.03;;;;;;;5.59;75.23;93630.00;520581;28;754;-74
2024/03/09 00:27:24;;;;;;;9.73;8.68;;;;;;;5.59;75.06;93627.25;520721;28;1660;-74
2024/03/09 00:27:39;;;;;;;10.18;8.85;;;;;;;5.57;75.22;93625.03;519482;28;820;-74
2024/03/09 00:27:56;;;;;;;9.65;8.63;;;;;;;5.58;75.17;93623.78;519518;28;927;-74
2024/03/09 00:28:12;;;;;;;9.98;8.85;;;;;;;5.53;75.48;93621.81;518546;28;900;-74
2024/03/09 00:28:30;;;;;;;10.40;9.15;;;;;;;5.52;75.48;93625.09;518484;28;821;-74
2024/03/09 00:28:45;;;;;;;10.77;8.88;;;;;;;5.49;75.17;93632.31;519978;28;841;-74
2024/03/09 00:29:02;;;;;;;10.97;8.87;;;;;;;5.50;75.26;93627.59;520682;28;781;-74
2024/03/09 00:29:19;;;;;;;10.32;8.70;;;;;;;5.52;75.41;93627.81;520613;28;876;-74
2024/03/09 00:29:35;;;;;;;9.25;8.25;;;;;;;5.54;75.54;93622.56;519105;28;1214;-74
2024/03/09 00:29:54;;;;;;;9.17;8.23;;;;;;;5.56;75.29;93629.03;520533;28;926;-74
2024/03/09 00:30:19;;;;;;;9.18;8.20;;;;;;;5.54;74.95;93626.06;520617;28;896;-74
2024/03/09 00:30:34;;;;;;;10.27;8.52;;;;;;;5.55;75.16;93630.25;520561;28;840;-74
2024/03/09 00:30:51;;;;;;;12.00;9.00;;;;;;;5.56;75.12;93628.28;519674;28;1715;-74
2024/03/09 00:31:07;;;;;;;10.90;8.68;;;;;;;5.59;75.18;93635.47;518430;28;933;-74
2024/03/09 00:31:22;;;;;;;9.47;8.47;;;;;;;5.59;74.97;93619.78;518555;28;809;-74
2024/03/09 00:31:39;;;;;;;9.73;8.40;;;;;;;5.59;74.81;93630.72;518901;28;849;-74
2024/03/09 00:31:55;;;;;;;9.48;7.88;;;;;;;5.58;74.62;93626.53;519807;28;821;-74
2024/03/09 00:32:11;;;;;;;8.57;7.68;;;;;;;5.59;74.51;93630.00;518556;28;794;-74
2024/03/09 00:32:26;;;;;;;8.75;7.85;;;;;;;5.61;74.27;93632.97;518555;28;932;-74
2024/03/09 00:32:42;;;;;;;8.70;7.70;;;;;;;5.59;74.39;93624.53;518585;28;1101;-74
2024/03/09 00:33:03;;;;;;;9.27;7.87;;;;;;;5.59;74.39;93627.97;519122;28;778;-74
2024/03/09 00:33:19;;;;;;;8.38;7.53;;;;;;;5.56;74.45;93628.28;520531;28;825;-74
2024/03/09 00:33:38;;;;;;;8.53;7.63;;;;;;;5.55;74.58;93627.53;520615;28;813;-74
2024/03/09 00:33:53;;;;;;;9.65;8.20;;;;;;;5.57;74.32;93627.00;518561;28;939;-74
2024/03/09 00:34:09;;;;;;;9.38;8.32;;;;;;;5.57;74.45;93621.53;518897;28;1513;-74
2024/03/09 00:34:24;;;;;;;8.60;7.70;;;;;;;5.56;74.53;93631.75;520761;28;969;-74
2024/03/09 00:34:40;;;;;;;8.60;7.70;;;;;;;5.58;74.39;93634.72;519388;28;794;-74
2024/03/09 00:34:55;;;;;;;9.17;8.03;;;;;;;5.56;74.10;93631.75;520670;28;1914;-74
2024/03/09 00:35:11;;;;;;;9.90;8.45;;;;;;;5.53;74.57;93630.03;518822;28;849;-74
2024/03/09 00:35:27;;;;;;;10.97;8.83;;;;;;;5.51;74.40;93635.28;518662;28;845;-74
2024/03/09 00:35:43;;;;;;;10.95;8.75;;;;;;;5.49;74.53;93624.09;519697;28;892;-74
2024/03/09 00:35:59;;;;;;;9.77;8.63;;;;;;;5.49;75.02;93626.84;520620;28;984;-74
2024/03/09 00:36:17;;;;;;;9.70;8.70;;;;;;;5.50;74.82;93630.34;518892;28;959;-74
2024/03/09 00:36:33;;;;;;;10.18;8.65;;;;;;;5.52;74.78;93622.34;518631;28;869;-74
2024/03/09 00:36:48;;;;;;;10.65;8.68;;;;;;;5.52;74.70;93622.34;520278;28;933;-74
2024/03/09 00:37:04;;;;;;;11.48;8.25;;;;;;;5.53;74.40;93632.78;520473;28;1173;-74
2024/03/09 00:37:20;;;;;;;10.57;7.87;;;;;;;5.52;74.50;93625.84;520102;28;1695;-74
2024/03/09 00:37:36;;;;;;;8.68;7.78;;;;;;;5.52;74.41;93620.34;518855;28;819;-74
2024/03/09 00:37:52;;;;;;;9.27;8.02;;;;;;;5.52;74.25;93627.81;518568;28;825;-74
2024/03/09 00:38:08;;;;;;;9.55;8.13;;;;;;;5.53;74.46;93626.56;518482;28;934;-74
2024/03/09 00:38:24;;;;;;;9.65;8.43;;;;;;;5.53;74.26;93624.56;518778;28;845;-74
2024/03/09 00:38:40;;;;;;;10.33;8.97;;;;;;;5.55;74.36;93633.00;520185;28;956;-74
2024/03/09 00:38:56;;;;;;;10.27;8.93;;;;;;;5.38;74.17;93605.78;520629;28;798;-74
2024/03/09 00:39:13;;;;;;;10.13;8.70;;;;;;;5.54;74.41;93628.06;519352;28;1043;-74
2024/03/09 00:39:28;;;;;;;10.38;8.90;;;;;;;5.56;74.62;93629.03;518618;28;896;-74
2024/03/09 00:39:43;;;;;;;10.57;8.73;;;;;;;5.55;74.31;93627.53;519822;28;805;-74
2024/03/09 00:39:59;;;;;;;10.82;8.98;;;;;;;5.52;74.59;93623.09;520750;28;797;-74
2024/03/09 00:40:14;;;;;;;10.50;8.83;;;;;;;5.50;74.67;93628.31;520682;28;912;-74
2024/03/09 00:40:30;;;;;;;10.43;8.43;;;;;;;5.48;74.90;93625.34;520783;28;954;-74
2024/03/09 00:40:45;;;;;;;9.97;8.30;;;;;;;5.50;74.95;93630.34;520453;28;856;-74
2024/03/09 00:41:01;;;;;;;9.93;8.43;;;;;;;5.51;74.72;93624.34;519158;28;1759;-74
2024/03/09 00:41:17;;;;;;;11.10;9.02;;;;;;;5.51;75.10;93621.59;520770;28;856;-74
2024/03/09 00:41:33;;;;;;;10.90;9.17;;;;;;;5.52;75.07;93623.09;518723;28;778;-74
2024/03/09 00:41:49;;;;;;;9.90;8.55;;;;;;;5.53;74.99;93632.03;520721;28;845;-74
2024/03/09 00:42:08;;;;;;;8.90;7.97;;;;;;;5.55;74.66;93624.03;518765;28;808;-74
2024/03/09 00:42:25;;;;;;;9.02;8.02;;;;;;;5.56;75.14;93622.81;518390;28;929;-74
2024/03/09 00:42:41;;;;;;;10.43;8.52;;;;;;;5.33;74.82;93603.06;519393;28;977;-74
2024/03/09 00:42:58;;;;;;;9.45;7.95;;;;;;;5.50;74.69;93627.59;520433;28;895;-74
2024/03/09 00:43:13;;;;;;;9.40;7.50;;;;;;;5.47;74.15;93620.38;518663;28;936;-74
2024/03/09 00:43:29;;;;;;;9.65;7.75;;;;;;;5.45;74.29;93620.16;518682;28;1748;-74
2024/03/09 00:43:46;;;;;;;8.90;7.67;;;;;;;5.40;74.47;93624.44;519965;28;861;-74
2024/03/09 00:44:03;;;;;;;8.93;7.53;;;;;;;5.44;74.24;93626.88;518816;28;1045;-74
2024/03/09 00:44:18;;;;;;;9.02;7.70;;;;;;;5.46;74.22;93629.88;518678;28;829;-74
2024/03/09 00:44:37;;;;;;;9.45;7.75;;;;;;;5.45;74.48;93628.38;519845;28;1105;-74
2024/03/09 00:44:52;;;;;;;9.23;7.78;;;;;;;5.47;74.04;93628.59;520724;28;871;-74
2024/03/09 00:45:09;;;;;;;9.18;7.82;;;;;;;5.47;74.41;93618.41;520690;28;853;-73
2024/03/09 00:45:25;;;;;;;9.35;7.93;;;;;;;5.49;74.47;93621.38;520681;28;1012;-72
2024/03/09 00:45:41;;;;;;;9.18;8.18;;;;;;;5.50;74.27;93622.13;520058;27;1045;-74
2024/03/09 00:45:56;;;;;;;9.50;8.20;;;;;;;5.52;74.44;93627.81;518705;28;948;-74
2024/03/09 00:46:12;;;;;;;9.63;8.15;;;;;;;5.52;74.43;93627.81;518757;28;871;-73
2024/03/09 00:46:27;;;;;;;9.93;8.25;;;;;;;5.55;74.03;93630.25;518625;28;845;-73
2024/03/09 00:46:43;;;;;;;10.03;8.60;;;;;;;5.57;74.16;93629.75;519678;28;783;-72
2024/03/09 00:47:00;;;;;;;9.83;8.30;;;;;;;5.56;74.20;93620.81;520763;28;850;-73
2024/03/09 00:47:16;;;;;;;9.80;8.38;;;;;;;5.58;73.93;93621.03;520571;28;926;-73
2024/03/09 00:47:34;;;;;;;9.90;8.45;;;;;;;5.60;74.24;93620.53;520032;28;1695;-73
2024/03/09 00:47:50;;;;;;;10.68;8.38;;;;;;;5.63;74.10;93630.47;520324;28;920;-73
2024/03/09 00:48:05;;;;;;;10.57;8.50;;;;;;;5.64;73.96;93623.72;518644;28;845;-73
2024/03/09 00:48:21;;;;;;;10.25;8.63;;;;;;;5.64;74.33;93618.97;518664;28;802;-73
2024/03/09 00:48:36;;;;;;;10.17;8.20;;;;;;;5.64;74.13;93618.97;518835;28;830;-73
2024/03/09 00:48:52;;;;;;;9.95;8.25;;;;;;;5.63;74.25;93622.97;520460;28;929;-73
2024/03/09 00:49:09;;;;;;;9.83;8.47;;;;;;;5.64;74.45;93618.97;520726;28;801;-74
2024/03/09 00:49:25;;;;;;;12.05;8.57;;;;;;;5.65;74.30;93623.19;520681;28;885;-74
2024/03/09 00:49:41;;;;;;;11.03;8.33;;;;;;;5.63;74.46;93619.50;519383;28;1055;-75
2024/03/09 00:49:57;;;;;;;9.27;8.35;;;;;;;5.60;74.40;93615.03;520696;28;912;-75
2024/03/09 00:50:15;;;;;;;9.53;8.53;;;;;;;5.62;74.12;93618.75;519353;28;1792;-72
2024/03/09 00:50:31;;;;;;;9.30;8.32;;;;;;;5.62;74.26;93629.72;518488;28;1412;-72
2024/03/09 00:50:46;;;;;;;9.00;7.97;;;;;;;5.65;74.04;93625.94;520050;28;873;-72
2024/03/09 00:51:02;;;;;;;9.32;8.15;;;;;;;5.63;74.00;93614.75;520716;28;864;-74
2024/03/09 00:51:18;;;;;;;8.57;7.67;;;;;;;5.64;74.25;93615.50;518637;28;857;-73
2024/03/09 00:51:33;;;;;;;8.60;7.70;;;;;;;5.63;73.83;93625.69;519591;28;798;-72
2024/03/09 00:51:48;;;;;;;10.03;8.53;;;;;;;5.64;74.04;93624.47;520468;28;845;-73
2024/03/09 00:52:07;;;;;;;10.68;8.52;;;;;;;5.64;74.06;93621.72;520027;28;914;-72
2024/03/09 00:52:25;;;;;;;10.30;8.13;;;;;;;5.39;73.89;93587.38;518609;28;845;-73
2024/03/09 00:52:40;;;;;;;10.00;8.52;;;;;;;5.64;73.71;93621.72;519964;28;849;-72
2024/03/09 00:52:56;;;;;;;10.75;8.75;;;;;;;5.65;73.82;93623.19;520641;28;896;-72
2024/03/09 00:53:11;;;;;;;9.40;8.13;;;;;;;5.61;73.99;93622.72;520619;28;789;-73
2024/03/09 00:53:27;;;;;;;8.70;7.75;;;;;;;5.62;73.81;93621.50;520569;28;786;-74
2024/03/09 00:53:42;;;;;;;9.70;8.20;;;;;;;5.61;73.77;93620.00;519555;28;1660;-72
2024/03/09 00:53:58;;;;;;;9.82;8.20;;;;;;;5.61;73.73;93620.00;519305;28;853;-72
2024/03/09 00:54:13;;;;;;;8.70;7.80;;;;;;;5.62;73.58;93628.97;519730;28;809;-72
2024/03/09 00:54:29;;;;;;;8.35;7.55;;;;;;;5.61;73.61;93625.47;518561;28;877;-72
2024/03/09 00:54:44;;;;;;;8.63;7.73;;;;;;;5.61;73.43;93628.22;518928;28;1915;-72
2024/03/09 00:55:00;;;;;;;9.10;7.87;;;;;;;5.60;73.55;93628.72;518529;28;950;-72
2024/03/09 00:55:15;;;;;;;9.20;8.20;;;;;;;5.60;73.62;93621.28;518520;28;869;-72
2024/03/09 00:55:31;;;;;;;8.75;7.72;;;;;;;5.61;73.37;93622.72;518468;28;1008;-72
2024/03/09 00:55:48;;;;;;;7.95;7.10;;;;;;;5.60;73.04;93620.53;519647;28;900;-72
2024/03/09 00:56:05;;;;;;;7.60;6.78;;;;;;;5.59;72.93;93627.25;518485;28;853;-72
2024/03/09 00:56:20;;;;;;;8.15;7.25;;;;;;;5.61;73.32;93624.75;518555;28;822;-72
2024/03/09 00:56:37;;;;;;;8.77;7.72;;;;;;;5.61;73.10;93620.00;518785;28;813;-72
2024/03/09 00:56:53;;;;;;;8.60;7.65;;;;;;;5.47;72.85;93607.44;518469;28;921;-72
2024/03/09 00:57:10;;;;;;;8.85;7.95;;;;;;;5.61;73.00;93628.22;520289;28;1005;-72
2024/03/09 00:57:25;;;;;;;9.02;8.10;;;;;;;5.60;72.93;93624.00;520008;28;1679;-72
2024/03/09 00:57:42;;;;;;;8.60;7.70;;;;;;;5.60;73.16;93626.75;518911;28;809;-72
2024/03/09 00:57:58;;;;;;;8.93;7.80;;;;;;;5.61;73.24;93617.25;519468;28;836;-72
2024/03/09 00:58:14;;;;;;;9.43;8.13;;;;;;;5.63;73.11;93625.69;520532;28;912;-72
2024/03/09 00:58:30;;;;;;;9.48;8.48;;;;;;;5.63;73.18;93627.72;519651;28;861;-72
2024/03/09 00:58:45;;;;;;;10.80;8.53;;;;;;;5.64;73.37;93629.19;518620;28;984;-72
2024/03/09 00:59:01;;;;;;;10.18;8.20;;;;;;;5.61;73.58;93622.03;518466;28;833;-72
2024/03/09 00:59:16;;;;;;;9.27;8.37;;;;;;;5.59;73.40;93619.78;518539;28;806;-72
2024/03/09 00:59:32;;;;;;;9.23;8.27;;;;;;;5.58;73.79;93626.53;518520;28;887;-72
2024/03/09 00:59:48;;;;;;;9.05;8.02;;;;;;;5.33;73.71;93592.13;520158;28;853;-72
2024/03/09 01:00:10;;;;;;;9.45;8.05;;;;;;;5.56;73.42;93623.56;520605;28;806;-72
2024/03/09 01:00:26;;;;;;;8.77;7.40;;;;;;;5.53;73.63;93621.81;521179;28;1056;-72
2024/03/09 01:00:46;;;;;;;8.43;7.50;;;;;;;5.53;73.56;93630.03;520475;28;857;-72
2024/03/09 01:01:04;;;;;;;9.40;8.15;;;;;;;5.54;73.96;93628.06;519339;28;1759;-72
2024/03/09 01:01:20;;;;;;;9.43;8.35;;;;;;;5.56;73.79;93626.28;520758;28;825;-72
2024/03/09 01:01:35;;;;;;;9.20;8.00;;;;;;;5.57;73.63;93622.28;518627;28;833;-72
2024/03/09 01:01:51;;;;;;;9.07;7.87;;;;;;;5.57;73.67;93611.31;520437;28;993;-72
2024/03/09 01:02:06;;;;;;;8.90;7.97;;;;;;;5.58;73.96;93623.78;518649;28;838;-72
2024/03/09 01:02:22;;;;;;;10.20;8.30;;;;;;;5.58;73.92;93623.78;518537;28;849;-72
2024/03/09 01:02:43;;;;;;;11.02;8.68;;;;;;;5.60;73.94;93620.53;518859;28;876;-72
2024/03/09 01:02:58;;;;;;;10.13;8.75;;;;;;;5.61;73.75;93619.28;520321;28;891;-72
2024/03/09 01:03:14;;;;;;;10.27;8.75;;;;;;;5.60;73.74;93615.78;518569;28;754;-72
2024/03/09 01:03:31;;;;;;;9.50;8.17;;;;;;;5.60;73.87;93617.78;518640;28;1477;-72
2024/03/09 01:03:47;;;;;;;9.68;7.93;;;;;;;5.61;73.92;93609.03;519254;28;853;-72
2024/03/09 01:04:04;;;;;;;9.90;7.70;;;;;;;5.60;73.90;93615.78;520663;28;810;-72
2024/03/09 01:04:19;;;;;;;10.15;7.80;;;;;;;5.59;73.77;93614.28;520580;28;845;-72
2024/03/09 01:04:35;;;;;;;9.03;8.00;;;;;;;5.60;73.58;93612.31;520331;28;912;-72
2024/03/09 01:04:51;;;;;;;9.50;7.95;;;;;;;5.58;73.26;93618.31;520631;28;798;-72
2024/03/09 01:05:07;;;;;;;9.20;7.63;;;;;;;5.57;73.26;93625.03;520511;28;1005;-72
2024/03/09 01:05:23;;;;;;;8.98;8.00;;;;;;;5.56;73.35;93620.81;520639;28;825;-72
2024/03/09 01:05:38;;;;;;;8.80;7.90;;;;;;;5.51;73.10;93618.84;520432;28;790;-72
2024/03/09 01:05:53;;;;;;;9.23;8.17;;;;;;;5.53;72.79;93621.06;518429;28;849;-72
2024/03/09 01:06:11;;;;;;;9.90;8.25;;;;;;;5.55;72.85;93624.78;518683;28;785;-72
2024/03/09 01:06:26;;;;;;;9.68;8.10;;;;;;;5.55;72.65;93626.78;518578;28;893;-73
2024/03/09 01:06:42;;;;;;;9.88;8.48;;;;;;;5.58;72.54;93615.56;517050;28;1112;-72
2024/03/09 01:06:58;;;;;;;9.23;8.03;;;;;;;5.61;72.42;93611.78;518419;28;832;-72
2024/03/09 01:07:15;;;;;;;9.43;8.02;;;;;;;5.60;72.21;93615.03;518459;28;876;-72
2024/03/09 01:07:30;;;;;;;10.27;8.02;;;;;;;5.60;72.12;93615.78;517640;28;1759;-72
2024/03/09 01:07:46;;;;;;;11.57;8.18;;;;;;;5.56;72.17;93607.13;516758;28;845;-72
2024/03/09 01:08:01;;;;;;;11.13;8.57;;;;;;;5.62;72.21;93618.00;517638;28;806;-72
2024/03/09 01:08:18;;;;;;;9.85;8.35;;;;;;;5.60;72.05;93617.78;518518;28;782;-72
2024/03/09 01:08:34;;;;;;;9.23;8.02;;;;;;;5.54;72.23;93603.41;517188;28;986;-73
2024/03/09 01:08:49;;;;;;;9.18;8.15;;;;;;;5.60;72.49;93615.78;520214;28;936;-72
2024/03/09 01:09:05;;;;;;;9.68;8.27;;;;;;;5.61;72.45;93611.78;520758;28;778;-73
2024/03/09 01:09:20;;;;;;;9.50;8.47;;;;;;;5.62;72.47;93610.53;520728;28;883;-73
2024/03/09 01:09:36;;;;;;;9.60;8.60;;;;;;;5.63;72.65;93614.03;519825;28;778;-72
2024/03/09 01:09:52;;;;;;;9.83;8.27;;;;;;;5.63;72.48;93616.75;520663;28;761;-73
2024/03/09 01:10:08;;;;;;;10.43;8.23;;;;;;;5.59;72.45;93619.06;520571;28;1092;-73
2024/03/09 01:10:24;;;;;;;11.05;8.63;;;;;;;5.57;72.41;93614.06;520676;28;857;-73
2024/03/09 01:10:40;;;;;;;10.90;8.50;;;;;;;5.58;72.68;93612.81;520656;28;813;-73
2024/03/09 01:10:55;;;;;;;9.68;8.23;;;;;;;5.59;72.59;93608.09;520084;28;1601;-73
2024/03/09 01:11:11;;;;;;;10.07;8.60;;;;;;;5.59;72.54;93613.56;519507;28;790;-73
2024/03/09 01:11:26;;;;;;;10.50;8.88;;;;;;;5.58;72.53;93607.34;520089;28;825;-73
2024/03/09 01:11:42;;;;;;;9.77;8.52;;;;;;;5.55;72.33;93602.88;519130;28;954;-73
2024/03/09 01:11:57;;;;;;;9.80;8.20;;;;;;;5.56;72.53;93604.38;518503;28;912;-72
2024/03/09 01:12:13;;;;;;;10.47;8.60;;;;;;;5.57;72.86;93607.84;518691;28;837;-73
2024/03/09 01:12:28;;;;;;;9.13;8.20;;;;;;;5.59;72.72;93603.34;518643;28;997;-72
2024/03/09 01:12:44;;;;;;;10.98;7.70;;;;;;;5.59;72.64;93602.63;519840;28;766;-73
2024/03/09 01:13:04;;;;;;;13.13;8.07;;;;;;;5.57;72.56;93614.06;520548;28;829;-73
2024/03/09 01:13:22;;;;;;;9.93;7.55;;;;;;;5.60;72.35;93612.31;520108;28;1005;-73
2024/03/09 01:13:38;;;;;;;9.70;8.07;;;;;;;5.56;72.78;93607.13;520666;28;818;-73
2024/03/09 01:13:53;;;;;;;10.47;8.60;;;;;;;5.58;72.54;93601.13;519118;28;1821;-74
2024/03/09 01:14:09;;;;;;;9.32;8.32;;;;;;;5.58;72.81;93601.13;520377;28;858;-74
2024/03/09 01:14:25;;;;;;;9.03;8.00;;;;;;;5.57;72.50;93605.84;518909;28;1108;-74
2024/03/09 01:14:41;;;;;;;9.70;8.32;;;;;;;5.56;72.57;93607.13;519495;28;892;-74
2024/03/09 01:14:56;;;;;;;8.70;7.68;;;;;;;5.56;72.70;93600.88;520278;28;1973;-74
2024/03/09 01:15:13;;;;;;;8.83;7.37;;;;;;;5.57;72.58;93608.59;520693;28;774;-74
2024/03/09 01:15:28;;;;;;;9.85;7.95;;;;;;;5.53;72.46;93613.59;520691;28;833;-74
2024/03/09 01:15:44;;;;;;;9.73;7.75;;;;;;;5.55;72.53;93610.34;520626;28;888;-74
2024/03/09 01:15:59;;;;;;;9.37;7.80;;;;;;;5.56;72.40;93609.84;519095;28;782;-74
2024/03/09 01:16:15;;;;;;;8.70;7.80;;;;;;;5.57;72.56;93616.81;518673;28;766;-74
2024/03/09 01:16:30;;;;;;;8.40;7.50;;;;;;;5.56;72.51;93604.38;519537;28;985;-74
2024/03/09 01:16:46;;;;;;;8.43;7.50;;;;;;;5.57;72.26;93605.84;520362;28;836;-74
2024/03/09 01:17:01;;;;;;;8.50;7.55;;;;;;;5.59;72.33;93610.84;520609;28;920;-74
2024/03/09 01:17:23;;;;;;;8.40;7.30;;;;;;;5.59;72.43;93610.84;520648;28;786;-74
2024/03/09 01:17:39;;;;;;;9.45;7.78;;;;;;;5.61;72.25;93605.59;520715;28;828;-74
2024/03/09 01:17:54;;;;;;;8.55;7.38;;;;;;;5.63;72.27;93608.56;520631;28;868;-74
2024/03/09 01:18:10;;;;;;;7.90;7.10;;;;;;;5.63;71.94;93603.78;520532;28;1168;-74
2024/03/09 01:18:25;;;;;;;8.07;7.28;;;;;;;5.60;72.23;93604.84;519369;28;1577;-74
2024/03/09 01:18:42;;;;;;;8.20;7.30;;;;;;;5.57;72.24;93603.09;520291;28;763;-74
2024/03/09 01:18:58;;;;;;;8.93;7.97;;;;;;;5.57;72.39;93611.31;518874;28;838;-74
2024/03/09 01:19:14;;;;;;;9.80;8.23;;;;;;;5.57;72.43;93605.09;518320;28;897;-74
2024/03/09 01:19:29;;;;;;;10.20;8.13;;;;;;;5.59;72.17;93608.09;518288;28;889;-74
2024/03/09 01:19:45;;;;;;;10.88;8.13;;;;;;;5.60;72.41;93607.56;518343;28;974;-74